sensor_id;sensor_type;location;lat;lon;timestamp;temperature;humidity
6256;DHT22;3161;48.794;9.784;2023-06-24T00:01:51;17.90;99.90
6256;DHT22;3161;48.794;9.784;2023-06-24T00:04:19;17.90;99.90
6256;DHT22;3161;48.794;9.784;2023-06-24T00:06:47;17.80;99.90
6256;DHT22;3161;48.794;9.784;2023-06-24T00:09:14;17.80;99.90
6256;DHT22;3161;48.794;9.784;2023-06-24T00:11:42;17.70;99.90
6256;DHT22;3161;48.794;9.784;2023-06-24T00:14:09;17.70;99.90
6256;DHT22;3161;48.794;9.784;2023-06-24T00:16:37;17.70;99.90
6256;DHT22;3161;48.794;9.784;2023-06-24T00:19:05;17.70;99.90
6256;DHT22;3161;48.794;9.784;2023-06-24T00:21:34;17.60;99.90
6256;DHT22;3161;48.794;9.784;2023-06-24T00:24:03;17.60;99.90
6256;DHT22;3161;48.794;9.784;2023-06-24T00:26:31;17.60;99.90
6256;DHT22;3161;48.794;9.784;2023-06-24T00:28:59;17.60;99.90
6256;DHT22;3161;48.794;9.784;2023-06-24T00:31:27;17.60;99.90
6256;DHT22;3161;48.794;9.784;2023-06-24T00:33:55;17.60;99.90
6256;DHT22;3161;48.794;9.784;2023-06-24T00:36:22;17.50;99.90
6256;DHT22;3161;48.794;9.784;2023-06-24T00:38:50;17.50;99.90
6256;DHT22;3161;48.794;9.784;2023-06-24T00:41:18;17.40;99.90
6256;DHT22;3161;48.794;9.784;2023-06-24T00:43:46;17.40;99.90
6256;DHT22;3161;48.794;9.784;2023-06-24T00:46:14;17.40;99.90
6256;DHT22;3161;48.794;9.784;2023-06-24T00:48:42;17.40;99.90
6256;DHT22;3161;48.794;9.784;2023-06-24T00:51:10;17.40;99.90
6256;DHT22;3161;48.794;9.784;2023-06-24T00:53:37;17.30;99.90
6256;DHT22;3161;48.794;9.784;2023-06-24T00:56:07;17.30;99.90
6256;DHT22;3161;48.794;9.784;2023-06-24T00:58:35;17.30;99.90
6256;DHT22;3161;48.794;9.784;2023-06-24T01:01:07;17.30;99.90
6256;DHT22;3161;48.794;9.784;2023-06-24T01:03:36;17.30;99.90
6256;DHT22;3161;48.794;9.784;2023-06-24T01:06:03;17.30;99.90
6256;DHT22;3161;48.794;9.784;2023-06-24T01:08:31;17.30;99.90
6256;DHT22;3161;48.794;9.784;2023-06-24T01:10:59;17.30;99.90
6256;DHT22;3161;48.794;9.784;2023-06-24T01:13:26;17.20;99.90
6256;DHT22;3161;48.794;9.784;2023-06-24T01:15:55;17.20;99.90
6256;DHT22;3161;48.794;9.784;2023-06-24T01:18:29;17.10;99.90
6256;DHT22;3161;48.794;9.784;2023-06-24T01:21:03;17.10;99.90
6256;DHT22;3161;48.794;9.784;2023-06-24T01:31:47;16.90;99.90
6256;DHT22;3161;48.794;9.784;2023-06-24T01:34:28;16.80;99.90
6256;DHT22;3161;48.794;9.784;2023-06-24T01:36:57;16.80;99.90
6256;DHT22;3161;48.794;9.784;2023-06-24T01:39:25;16.70;99.90
6256;DHT22;3161;48.794;9.784;2023-06-24T01:42:00;16.70;99.90
6256;DHT22;3161;48.794;9.784;2023-06-24T01:44:28;16.70;99.90
6256;DHT22;3161;48.794;9.784;2023-06-24T01:46:58;16.60;99.90
6256;DHT22;3161;48.794;9.784;2023-06-24T01:49:28;16.60;99.90
6256;DHT22;3161;48.794;9.784;2023-06-24T01:51:57;16.60;99.90
6256;DHT22;3161;48.794;9.784;2023-06-24T01:54:28;16.60;99.90
6256;DHT22;3161;48.794;9.784;2023-06-24T01:56:58;16.50;99.90
6256;DHT22;3161;48.794;9.784;2023-06-24T01:59:28;16.50;99.90
6256;DHT22;3161;48.794;9.784;2023-06-24T02:01:57;16.50;99.90
6256;DHT22;3161;48.794;9.784;2023-06-24T02:04:27;16.50;99.90
6256;DHT22;3161;48.794;9.784;2023-06-24T02:07:02;16.50;99.90
6256;DHT22;3161;48.794;9.784;2023-06-24T02:09:32;16.40;99.90
6256;DHT22;3161;48.794;9.784;2023-06-24T02:12:02;16.30;99.90
6256;DHT22;3161;48.794;9.784;2023-06-24T02:14:30;16.30;99.90
6256;DHT22;3161;48.794;9.784;2023-06-24T02:17:01;16.30;99.90
6256;DHT22;3161;48.794;9.784;2023-06-24T02:19:30;16.30;99.90
6256;DHT22;3161;48.794;9.784;2023-06-24T02:21:58;16.20;99.90
6256;DHT22;3161;48.794;9.784;2023-06-24T02:24:30;16.20;99.90
6256;DHT22;3161;48.794;9.784;2023-06-24T02:26:58;16.10;99.90
6256;DHT22;3161;48.794;9.784;2023-06-24T02:29:27;16.00;99.90
6256;DHT22;3161;48.794;9.784;2023-06-24T02:31:55;16.00;99.90
6256;DHT22;3161;48.794;9.784;2023-06-24T02:34:26;16.00;99.90
6256;DHT22;3161;48.794;9.784;2023-06-24T02:36:54;15.80;99.90
6256;DHT22;3161;48.794;9.784;2023-06-24T02:39:21;16.00;99.90
6256;DHT22;3161;48.794;9.784;2023-06-24T02:41:49;15.90;99.90
6256;DHT22;3161;48.794;9.784;2023-06-24T02:44:17;15.90;99.90
6256;DHT22;3161;48.794;9.784;2023-06-24T02:46:46;15.80;99.90
6256;DHT22;3161;48.794;9.784;2023-06-24T02:49:16;15.80;99.90
6256;DHT22;3161;48.794;9.784;2023-06-24T02:51:45;15.80;99.90
6256;DHT22;3161;48.794;9.784;2023-06-24T02:54:13;15.80;99.90
6256;DHT22;3161;48.794;9.784;2023-06-24T02:56:42;15.70;99.90
6256;DHT22;3161;48.794;9.784;2023-06-24T02:59:11;15.60;99.90
6256;DHT22;3161;48.794;9.784;2023-06-24T03:01:39;15.60;99.90
6256;DHT22;3161;48.794;9.784;2023-06-24T03:04:08;15.60;99.90
6256;DHT22;3161;48.794;9.784;2023-06-24T03:06:36;15.50;99.90
6256;DHT22;3161;48.794;9.784;2023-06-24T03:09:05;15.50;99.90
6256;DHT22;3161;48.794;9.784;2023-06-24T03:11:41;15.50;99.90
6256;DHT22;3161;48.794;9.784;2023-06-24T03:14:10;15.50;99.90
6256;DHT22;3161;48.794;9.784;2023-06-24T03:16:38;15.40;99.90
6256;DHT22;3161;48.794;9.784;2023-06-24T03:19:06;15.40;99.90
6256;DHT22;3161;48.794;9.784;2023-06-24T03:21:33;15.40;99.90
6256;DHT22;3161;48.794;9.784;2023-06-24T03:24:01;15.40;99.90
6256;DHT22;3161;48.794;9.784;2023-06-24T03:26:34;15.40;99.90
6256;DHT22;3161;48.794;9.784;2023-06-24T03:29:02;15.30;99.90
6256;DHT22;3161;48.794;9.784;2023-06-24T03:31:30;15.30;99.90
6256;DHT22;3161;48.794;9.784;2023-06-24T03:33:57;15.30;99.90
6256;DHT22;3161;48.794;9.784;2023-06-24T03:36:25;15.20;99.90
6256;DHT22;3161;48.794;9.784;2023-06-24T03:38:52;15.20;99.90
6256;DHT22;3161;48.794;9.784;2023-06-24T03:41:20;15.20;99.90
6256;DHT22;3161;48.794;9.784;2023-06-24T03:43:48;15.10;99.90
6256;DHT22;3161;48.794;9.784;2023-06-24T03:46:15;15.20;99.90
6256;DHT22;3161;48.794;9.784;2023-06-24T03:48:43;15.10;99.90
6256;DHT22;3161;48.794;9.784;2023-06-24T03:51:11;15.10;99.90
6256;DHT22;3161;48.794;9.784;2023-06-24T03:53:38;15.10;99.90
6256;DHT22;3161;48.794;9.784;2023-06-24T03:56:06;15.10;99.90
6256;DHT22;3161;48.794;9.784;2023-06-24T03:58:33;15.10;99.90
6256;DHT22;3161;48.794;9.784;2023-06-24T04:01:02;15.10;99.90
6256;DHT22;3161;48.794;9.784;2023-06-24T04:03:30;15.10;99.90
6256;DHT22;3161;48.794;9.784;2023-06-24T04:05:58;15.10;99.90
6256;DHT22;3161;48.794;9.784;2023-06-24T04:08:27;15.10;99.90
6256;DHT22;3161;48.794;9.784;2023-06-24T04:10:58;15.10;99.90
6256;DHT22;3161;48.794;9.784;2023-06-24T04:13:30;15.10;99.90
6256;DHT22;3161;48.794;9.784;2023-06-24T04:15:58;15.10;99.90
6256;DHT22;3161;48.794;9.784;2023-06-24T04:18:25;15.20;99.90
6256;DHT22;3161;48.794;9.784;2023-06-24T04:20:53;15.20;99.90
6256;DHT22;3161;48.794;9.784;2023-06-24T04:23:21;15.20;99.90
6256;DHT22;3161;48.794;9.784;2023-06-24T04:25:48;15.20;99.90
6256;DHT22;3161;48.794;9.784;2023-06-24T04:28:16;15.20;99.90
6256;DHT22;3161;48.794;9.784;2023-06-24T04:30:43;15.30;99.90
6256;DHT22;3161;48.794;9.784;2023-06-24T04:33:11;15.30;99.90
6256;DHT22;3161;48.794;9.784;2023-06-24T04:35:38;15.40;99.90
6256;DHT22;3161;48.794;9.784;2023-06-24T04:38:06;15.40;99.90
6256;DHT22;3161;48.794;9.784;2023-06-24T04:40:33;15.40;99.90
6256;DHT22;3161;48.794;9.784;2023-06-24T04:43:01;15.50;99.90
6256;DHT22;3161;48.794;9.784;2023-06-24T04:45:29;15.50;99.90
6256;DHT22;3161;48.794;9.784;2023-06-24T04:47:56;15.50;99.90
6256;DHT22;3161;48.794;9.784;2023-06-24T04:50:24;15.60;99.90
6256;DHT22;3161;48.794;9.784;2023-06-24T04:52:54;15.60;99.90
6256;DHT22;3161;48.794;9.784;2023-06-24T04:55:23;15.70;99.90
6256;DHT22;3161;48.794;9.784;2023-06-24T04:57:50;15.70;99.90
6256;DHT22;3161;48.794;9.784;2023-06-24T05:00:18;15.80;99.90
6256;DHT22;3161;48.794;9.784;2023-06-24T05:02:47;15.80;99.90
6256;DHT22;3161;48.794;9.784;2023-06-24T05:05:15;15.90;99.90
6256;DHT22;3161;48.794;9.784;2023-06-24T05:07:42;16.00;99.90
6256;DHT22;3161;48.794;9.784;2023-06-24T05:10:10;16.10;99.90
6256;DHT22;3161;48.794;9.784;2023-06-24T05:12:37;16.20;99.90
6256;DHT22;3161;48.794;9.784;2023-06-24T05:15:20;16.20;99.90
6256;DHT22;3161;48.794;9.784;2023-06-24T05:17:44;16.30;99.90
6256;DHT22;3161;48.794;9.784;2023-06-24T05:20:12;16.40;99.90
6256;DHT22;3161;48.794;9.784;2023-06-24T05:22:39;16.50;99.90
6256;DHT22;3161;48.794;9.784;2023-06-24T05:25:07;16.60;99.90
6256;DHT22;3161;48.794;9.784;2023-06-24T05:27:35;16.70;99.90
6256;DHT22;3161;48.794;9.784;2023-06-24T05:30:03;16.80;99.90
6256;DHT22;3161;48.794;9.784;2023-06-24T05:32:31;16.90;99.90
6256;DHT22;3161;48.794;9.784;2023-06-24T05:34:58;17.00;99.90
6256;DHT22;3161;48.794;9.784;2023-06-24T05:37:26;17.10;99.90
6256;DHT22;3161;48.794;9.784;2023-06-24T05:39:53;17.20;99.90
6256;DHT22;3161;48.794;9.784;2023-06-24T05:42:21;17.30;99.90
6256;DHT22;3161;48.794;9.784;2023-06-24T05:44:49;17.40;99.90
6256;DHT22;3161;48.794;9.784;2023-06-24T05:47:17;17.50;99.90
6256;DHT22;3161;48.794;9.784;2023-06-24T05:49:44;17.50;99.90
6256;DHT22;3161;48.794;9.784;2023-06-24T05:52:12;17.70;99.90
6256;DHT22;3161;48.794;9.784;2023-06-24T05:54:40;17.80;99.90
6256;DHT22;3161;48.794;9.784;2023-06-24T05:57:07;17.90;99.90
6256;DHT22;3161;48.794;9.784;2023-06-24T05:59:35;18.00;99.90
6256;DHT22;3161;48.794;9.784;2023-06-24T06:02:03;18.10;99.90
6256;DHT22;3161;48.794;9.784;2023-06-24T06:04:30;18.20;99.90
6256;DHT22;3161;48.794;9.784;2023-06-24T06:06:58;18.30;99.90
6256;DHT22;3161;48.794;9.784;2023-06-24T06:09:25;18.40;99.90
6256;DHT22;3161;48.794;9.784;2023-06-24T06:11:53;18.50;99.90
6256;DHT22;3161;48.794;9.784;2023-06-24T06:14:20;18.60;99.90
6256;DHT22;3161;48.794;9.784;2023-06-24T06:16:48;18.20;99.90
6256;DHT22;3161;48.794;9.784;2023-06-24T06:19:15;18.90;99.90
6256;DHT22;3161;48.794;9.784;2023-06-24T06:21:43;19.10;99.90
6256;DHT22;3161;48.794;9.784;2023-06-24T06:24:10;19.10;99.90
6256;DHT22;3161;48.794;9.784;2023-06-24T06:26:44;19.30;99.90
6256;DHT22;3161;48.794;9.784;2023-06-24T06:29:12;19.40;99.90
6256;DHT22;3161;48.794;9.784;2023-06-24T06:31:40;19.50;99.90
6256;DHT22;3161;48.794;9.784;2023-06-24T06:34:07;19.70;99.90
6256;DHT22;3161;48.794;9.784;2023-06-24T06:36:35;19.80;99.90
6256;DHT22;3161;48.794;9.784;2023-06-24T06:39:02;20.00;99.90
6256;DHT22;3161;48.794;9.784;2023-06-24T06:41:30;20.20;99.90
6256;DHT22;3161;48.794;9.784;2023-06-24T06:43:57;20.30;99.90
6256;DHT22;3161;48.794;9.784;2023-06-24T06:46:25;20.50;99.90
6256;DHT22;3161;48.794;9.784;2023-06-24T06:48:52;20.70;99.90
6256;DHT22;3161;48.794;9.784;2023-06-24T06:51:20;20.80;99.90
6256;DHT22;3161;48.794;9.784;2023-06-24T06:53:47;21.00;99.90
6256;DHT22;3161;48.794;9.784;2023-06-24T06:56:21;21.10;99.90
6256;DHT22;3161;48.794;9.784;2023-06-24T06:58:48;21.30;99.90
6256;DHT22;3161;48.794;9.784;2023-06-24T07:01:17;21.50;99.90
6256;DHT22;3161;48.794;9.784;2023-06-24T07:03:45;21.60;99.90
6256;DHT22;3161;48.794;9.784;2023-06-24T07:06:12;21.80;99.90
6256;DHT22;3161;48.794;9.784;2023-06-24T07:08:40;22.00;99.90
6256;DHT22;3161;48.794;9.784;2023-06-24T07:11:07;22.10;99.90
6256;DHT22;3161;48.794;9.784;2023-06-24T07:13:35;22.30;99.90
6256;DHT22;3161;48.794;9.784;2023-06-24T07:16:03;22.50;99.90
6256;DHT22;3161;48.794;9.784;2023-06-24T07:18:30;22.70;99.90
6256;DHT22;3161;48.794;9.784;2023-06-24T07:20:59;22.90;99.90
6256;DHT22;3161;48.794;9.784;2023-06-24T07:23:28;23.00;99.90
6256;DHT22;3161;48.794;9.784;2023-06-24T07:25:55;23.20;99.90
6256;DHT22;3161;48.794;9.784;2023-06-24T07:28:23;23.30;99.90
6256;DHT22;3161;48.794;9.784;2023-06-24T07:30:50;23.50;99.90
6256;DHT22;3161;48.794;9.784;2023-06-24T07:33:18;23.60;99.90
6256;DHT22;3161;48.794;9.784;2023-06-24T07:35:46;23.80;99.90
6256;DHT22;3161;48.794;9.784;2023-06-24T07:38:13;23.90;99.90
6256;DHT22;3161;48.794;9.784;2023-06-24T07:40:41;24.10;99.90
6256;DHT22;3161;48.794;9.784;2023-06-24T07:43:08;24.20;99.90
6256;DHT22;3161;48.794;9.784;2023-06-24T07:45:36;24.40;99.90
6256;DHT22;3161;48.794;9.784;2023-06-24T07:48:04;24.60;99.90
6256;DHT22;3161;48.794;9.784;2023-06-24T07:50:33;24.70;99.90
6256;DHT22;3161;48.794;9.784;2023-06-24T07:53:03;24.80;99.90
6256;DHT22;3161;48.794;9.784;2023-06-24T07:55:30;25.00;99.20
6256;DHT22;3161;48.794;9.784;2023-06-24T07:57:58;25.10;98.90
6256;DHT22;3161;48.794;9.784;2023-06-24T08:00:25;25.10;97.20
6256;DHT22;3161;48.794;9.784;2023-06-24T08:02:53;25.20;98.40
6256;DHT22;3161;48.794;9.784;2023-06-24T08:05:21;25.40;97.30
6256;DHT22;3161;48.794;9.784;2023-06-24T08:07:51;25.60;98.50
6256;DHT22;3161;48.794;9.784;2023-06-24T08:10:19;25.70;96.60
6256;DHT22;3161;48.794;9.784;2023-06-24T08:12:46;25.80;96.60
6256;DHT22;3161;48.794;9.784;2023-06-24T08:15:14;25.90;94.80
6256;DHT22;3161;48.794;9.784;2023-06-24T08:17:42;26.00;95.20
6256;DHT22;3161;48.794;9.784;2023-06-24T08:20:10;26.00;93.10
6256;DHT22;3161;48.794;9.784;2023-06-24T08:22:38;25.90;93.60
6256;DHT22;3161;48.794;9.784;2023-06-24T08:25:06;26.00;93.90
6256;DHT22;3161;48.794;9.784;2023-06-24T08:27:34;26.10;92.80
6256;DHT22;3161;48.794;9.784;2023-06-24T08:30:01;26.10;92.30
6256;DHT22;3161;48.794;9.784;2023-06-24T08:32:29;26.10;92.40
6256;DHT22;3161;48.794;9.784;2023-06-24T08:34:56;26.20;91.70
6256;DHT22;3161;48.794;9.784;2023-06-24T08:37:24;26.20;92.20
6256;DHT22;3161;48.794;9.784;2023-06-24T08:39:51;26.30;91.90
6256;DHT22;3161;48.794;9.784;2023-06-24T08:42:19;26.40;90.40
6256;DHT22;3161;48.794;9.784;2023-06-24T08:44:47;26.30;90.30
6256;DHT22;3161;48.794;9.784;2023-06-24T08:47:15;26.30;89.70
6256;DHT22;3161;48.794;9.784;2023-06-24T08:49:47;26.30;90.60
6256;DHT22;3161;48.794;9.784;2023-06-24T08:52:15;26.40;91.00
6256;DHT22;3161;48.794;9.784;2023-06-24T08:54:50;26.50;90.70
6256;DHT22;3161;48.794;9.784;2023-06-24T08:57:15;26.60;88.70
6256;DHT22;3161;48.794;9.784;2023-06-24T08:59:43;26.70;88.20
6256;DHT22;3161;48.794;9.784;2023-06-24T09:02:10;26.80;88.10
6256;DHT22;3161;48.794;9.784;2023-06-24T09:04:40;26.90;88.40
6256;DHT22;3161;48.794;9.784;2023-06-24T09:07:08;27.10;87.20
6256;DHT22;3161;48.794;9.784;2023-06-24T09:09:43;27.20;86.50
6256;DHT22;3161;48.794;9.784;2023-06-24T09:12:13;27.30;85.90
6256;DHT22;3161;48.794;9.784;2023-06-24T09:14:41;27.40;84.20
6256;DHT22;3161;48.794;9.784;2023-06-24T09:17:10;27.40;86.90
6256;DHT22;3161;48.794;9.784;2023-06-24T09:19:38;27.50;87.30
6256;DHT22;3161;48.794;9.784;2023-06-24T09:22:06;27.60;85.90
6256;DHT22;3161;48.794;9.784;2023-06-24T09:24:35;27.50;83.80
6256;DHT22;3161;48.794;9.784;2023-06-24T09:27:04;27.40;83.90
6256;DHT22;3161;48.794;9.784;2023-06-24T09:29:34;27.30;85.40
6256;DHT22;3161;48.794;9.784;2023-06-24T09:32:06;27.40;85.00
6256;DHT22;3161;48.794;9.784;2023-06-24T09:34:34;27.30;82.30
6256;DHT22;3161;48.794;9.784;2023-06-24T09:37:02;27.10;84.90
6256;DHT22;3161;48.794;9.784;2023-06-24T09:39:37;26.90;84.00
6256;DHT22;3161;48.794;9.784;2023-06-24T09:42:06;26.70;84.60
6256;DHT22;3161;48.794;9.784;2023-06-24T09:44:34;26.60;85.70
6256;DHT22;3161;48.794;9.784;2023-06-24T09:47:01;26.50;89.40
6256;DHT22;3161;48.794;9.784;2023-06-24T09:49:29;26.50;89.10
6256;DHT22;3161;48.794;9.784;2023-06-24T09:51:58;26.70;89.10
6256;DHT22;3161;48.794;9.784;2023-06-24T09:54:28;26.80;87.40
6256;DHT22;3161;48.794;9.784;2023-06-24T09:56:59;26.90;85.20
6256;DHT22;3161;48.794;9.784;2023-06-24T09:59:27;26.80;84.80
6256;DHT22;3161;48.794;9.784;2023-06-24T10:01:55;26.80;86.70
6256;DHT22;3161;48.794;9.784;2023-06-24T10:04:23;26.90;86.10
6256;DHT22;3161;48.794;9.784;2023-06-24T10:06:52;27.00;89.00
6256;DHT22;3161;48.794;9.784;2023-06-24T10:09:20;27.20;86.40
6256;DHT22;3161;48.794;9.784;2023-06-24T10:11:47;27.40;85.00
6256;DHT22;3161;48.794;9.784;2023-06-24T10:14:16;27.50;83.60
6256;DHT22;3161;48.794;9.784;2023-06-24T10:16:45;27.70;83.20
6256;DHT22;3161;48.794;9.784;2023-06-24T10:19:19;27.90;83.90
6256;DHT22;3161;48.794;9.784;2023-06-24T10:21:59;28.00;82.40
6256;DHT22;3161;48.794;9.784;2023-06-24T10:24:35;28.00;78.90
6256;DHT22;3161;48.794;9.784;2023-06-24T10:27:08;28.20;78.00
6256;DHT22;3161;48.794;9.784;2023-06-24T10:29:37;28.30;79.70
6256;DHT22;3161;48.794;9.784;2023-06-24T10:32:07;28.20;79.60
6256;DHT22;3161;48.794;9.784;2023-06-24T10:34:53;28.30;79.80
6256;DHT22;3161;48.794;9.784;2023-06-24T10:40:01;28.30;78.40
6256;DHT22;3161;48.794;9.784;2023-06-24T10:42:37;28.40;79.10
6256;DHT22;3161;48.794;9.784;2023-06-24T10:45:13;28.50;77.00
6256;DHT22;3161;48.794;9.784;2023-06-24T10:47:44;28.50;79.00
6256;DHT22;3161;48.794;9.784;2023-06-24T10:50:14;28.70;79.10
6256;DHT22;3161;48.794;9.784;2023-06-24T10:52:47;28.70;78.20
6256;DHT22;3161;48.794;9.784;2023-06-24T10:55:13;28.80;77.60
6256;DHT22;3161;48.794;9.784;2023-06-24T10:57:42;28.80;77.80
6256;DHT22;3161;48.794;9.784;2023-06-24T11:00:11;28.60;77.00
6256;DHT22;3161;48.794;9.784;2023-06-24T11:02:39;28.40;78.20
6256;DHT22;3161;48.794;9.784;2023-06-24T11:05:07;28.30;78.40
6256;DHT22;3161;48.794;9.784;2023-06-24T11:07:37;28.10;79.00
6256;DHT22;3161;48.794;9.784;2023-06-24T11:10:08;28.00;62.60
6256;DHT22;3161;48.794;9.784;2023-06-24T11:12:38;28.00;63.50
6256;DHT22;3161;48.794;9.784;2023-06-24T11:15:07;28.10;63.40
6256;DHT22;3161;48.794;9.784;2023-06-24T11:17:36;28.20;64.60
6256;DHT22;3161;48.794;9.784;2023-06-24T11:20:12;28.30;64.70
6256;DHT22;3161;48.794;9.784;2023-06-24T11:22:41;28.40;64.80
6256;DHT22;3161;48.794;9.784;2023-06-24T11:25:17;28.40;64.20
6256;DHT22;3161;48.794;9.784;2023-06-24T11:27:46;28.30;62.70
6256;DHT22;3161;48.794;9.784;2023-06-24T11:30:14;28.20;62.60
6256;DHT22;3161;48.794;9.784;2023-06-24T11:32:43;28.20;64.40
6256;DHT22;3161;48.794;9.784;2023-06-24T11:35:12;28.30;63.90
6256;DHT22;3161;48.794;9.784;2023-06-24T11:37:43;28.40;62.40
6256;DHT22;3161;48.794;9.784;2023-06-24T11:40:12;28.50;62.60
6256;DHT22;3161;48.794;9.784;2023-06-24T11:42:41;28.50;61.60
6256;DHT22;3161;48.794;9.784;2023-06-24T11:45:13;28.50;60.80
6256;DHT22;3161;48.794;9.784;2023-06-24T11:47:41;28.50;62.00
6256;DHT22;3161;48.794;9.784;2023-06-24T11:50:09;28.50;60.40
6256;DHT22;3161;48.794;9.784;2023-06-24T11:52:38;28.50;60.50
6256;DHT22;3161;48.794;9.784;2023-06-24T11:55:21;28.60;61.40
6256;DHT22;3161;48.794;9.784;2023-06-24T11:58:03;28.60;61.30
6256;DHT22;3161;48.794;9.784;2023-06-24T12:00:27;28.60;60.40
6256;DHT22;3161;48.794;9.784;2023-06-24T12:02:57;28.60;61.40
6256;DHT22;3161;48.794;9.784;2023-06-24T12:05:34;28.50;60.90
6256;DHT22;3161;48.794;9.784;2023-06-24T12:08:03;28.50;60.40
6256;DHT22;3161;48.794;9.784;2023-06-24T12:10:33;28.40;60.30
6256;DHT22;3161;48.794;9.784;2023-06-24T12:13:01;28.50;60.60
6256;DHT22;3161;48.794;9.784;2023-06-24T12:15:30;28.50;58.50
6256;DHT22;3161;48.794;9.784;2023-06-24T12:17:57;28.60;59.30
6256;DHT22;3161;48.794;9.784;2023-06-24T12:20:26;28.70;59.80
6256;DHT22;3161;48.794;9.784;2023-06-24T12:22:53;28.80;58.50
6256;DHT22;3161;48.794;9.784;2023-06-24T12:25:22;29.00;58.00
6256;DHT22;3161;48.794;9.784;2023-06-24T12:27:50;29.00;58.50
6256;DHT22;3161;48.794;9.784;2023-06-24T12:30:17;29.20;58.70
6256;DHT22;3161;48.794;9.784;2023-06-24T12:32:46;29.20;56.80
6256;DHT22;3161;48.794;9.784;2023-06-24T12:35:14;29.20;56.10
6256;DHT22;3161;48.794;9.784;2023-06-24T12:37:42;29.20;56.00
6256;DHT22;3161;48.794;9.784;2023-06-24T12:40:11;29.00;56.00
6256;DHT22;3161;48.794;9.784;2023-06-24T12:42:39;28.80;55.60
6256;DHT22;3161;48.794;9.784;2023-06-24T12:45:07;28.70;56.20
6256;DHT22;3161;48.794;9.784;2023-06-24T12:47:35;28.70;56.00
6256;DHT22;3161;48.794;9.784;2023-06-24T12:50:02;29.00;56.00
6256;DHT22;3161;48.794;9.784;2023-06-24T12:52:32;29.50;56.30
6256;DHT22;3161;48.794;9.784;2023-06-24T12:54:59;30.00;56.00
6256;DHT22;3161;48.794;9.784;2023-06-24T12:57:46;30.50;55.50
6256;DHT22;3161;48.794;9.784;2023-06-24T13:00:15;30.70;50.90
6256;DHT22;3161;48.794;9.784;2023-06-24T13:02:43;31.00;51.80
6256;DHT22;3161;48.794;9.784;2023-06-24T13:05:11;31.50;51.70
6256;DHT22;3161;48.794;9.784;2023-06-24T13:07:38;32.30;50.40
6256;DHT22;3161;48.794;9.784;2023-06-24T13:10:06;33.30;49.40
6256;DHT22;3161;48.794;9.784;2023-06-24T13:12:34;34.50;52.80
6256;DHT22;3161;48.794;9.784;2023-06-24T13:15:03;34.80;51.80
6256;DHT22;3161;48.794;9.784;2023-06-24T13:17:31;35.00;53.20
6256;DHT22;3161;48.794;9.784;2023-06-24T13:19:59;34.90;53.20
6256;DHT22;3161;48.794;9.784;2023-06-24T13:22:28;34.60;51.80
6256;DHT22;3161;48.794;9.784;2023-06-24T13:27:23;34.00;46.20
6256;DHT22;3161;48.794;9.784;2023-06-24T13:29:51;34.20;47.20
6256;DHT22;3161;48.794;9.784;2023-06-24T13:32:18;34.60;44.90
6256;DHT22;3161;48.794;9.784;2023-06-24T13:34:46;35.20;43.70
6256;DHT22;3161;48.794;9.784;2023-06-24T13:37:14;36.40;42.70
6256;DHT22;3161;48.794;9.784;2023-06-24T13:39:42;37.80;40.20
6256;DHT22;3161;48.794;9.784;2023-06-24T13:42:09;38.80;37.90
6256;DHT22;3161;48.794;9.784;2023-06-24T13:44:37;38.80;36.90
6256;DHT22;3161;48.794;9.784;2023-06-24T13:47:05;38.40;36.70
6256;DHT22;3161;48.794;9.784;2023-06-24T13:49:33;38.00;36.70
6256;DHT22;3161;48.794;9.784;2023-06-24T13:52:00;37.00;36.30
6256;DHT22;3161;48.794;9.784;2023-06-24T13:54:28;35.80;38.30
6256;DHT22;3161;48.794;9.784;2023-06-24T13:56:57;34.60;41.30
6256;DHT22;3161;48.794;9.784;2023-06-24T13:59:25;33.70;43.10
6256;DHT22;3161;48.794;9.784;2023-06-24T14:01:53;32.90;42.70
6256;DHT22;3161;48.794;9.784;2023-06-24T14:04:21;32.20;44.10
6256;DHT22;3161;48.794;9.784;2023-06-24T14:06:49;31.80;46.00
6256;DHT22;3161;48.794;9.784;2023-06-24T14:09:16;31.60;45.70
6256;DHT22;3161;48.794;9.784;2023-06-24T14:11:44;31.30;45.20
6256;DHT22;3161;48.794;9.784;2023-06-24T14:14:11;31.10;45.80
6256;DHT22;3161;48.794;9.784;2023-06-24T14:16:39;30.90;46.20
6256;DHT22;3161;48.794;9.784;2023-06-24T14:19:06;30.70;46.10
6256;DHT22;3161;48.794;9.784;2023-06-24T14:21:34;30.60;46.30
6256;DHT22;3161;48.794;9.784;2023-06-24T14:24:02;30.40;46.50
6256;DHT22;3161;48.794;9.784;2023-06-24T14:26:29;30.30;47.70
6256;DHT22;3161;48.794;9.784;2023-06-24T14:28:57;30.10;46.60
6256;DHT22;3161;48.794;9.784;2023-06-24T14:31:25;29.90;47.20
6256;DHT22;3161;48.794;9.784;2023-06-24T14:33:52;29.70;47.60
6256;DHT22;3161;48.794;9.784;2023-06-24T14:36:20;29.70;49.30
6256;DHT22;3161;48.794;9.784;2023-06-24T14:38:48;29.50;49.50
6256;DHT22;3161;48.794;9.784;2023-06-24T14:41:15;29.40;49.70
6256;DHT22;3161;48.794;9.784;2023-06-24T14:43:43;29.30;49.80
6256;DHT22;3161;48.794;9.784;2023-06-24T14:46:10;29.10;50.30
6256;DHT22;3161;48.794;9.784;2023-06-24T14:48:38;29.10;50.50
6256;DHT22;3161;48.794;9.784;2023-06-24T14:51:05;29.00;49.90
6256;DHT22;3161;48.794;9.784;2023-06-24T14:53:33;29.00;50.50
6256;DHT22;3161;48.794;9.784;2023-06-24T14:56:00;29.00;49.50
6256;DHT22;3161;48.794;9.784;2023-06-24T14:58:28;28.90;50.00
6256;DHT22;3161;48.794;9.784;2023-06-24T15:00:56;29.00;50.00
6256;DHT22;3161;48.794;9.784;2023-06-24T15:03:23;29.00;50.20
6256;DHT22;3161;48.794;9.784;2023-06-24T15:05:51;29.00;51.40
6256;DHT22;3161;48.794;9.784;2023-06-24T15:08:18;29.00;49.60
6256;DHT22;3161;48.794;9.784;2023-06-24T15:10:46;29.00;50.20
6256;DHT22;3161;48.794;9.784;2023-06-24T15:13:13;29.00;50.60
6256;DHT22;3161;48.794;9.784;2023-06-24T15:15:41;29.00;50.60
6256;DHT22;3161;48.794;9.784;2023-06-24T15:18:08;29.00;50.50
6256;DHT22;3161;48.794;9.784;2023-06-24T15:20:36;29.00;50.00
6256;DHT22;3161;48.794;9.784;2023-06-24T15:23:03;29.10;50.80
6256;DHT22;3161;48.794;9.784;2023-06-24T15:25:31;29.00;50.90
6256;DHT22;3161;48.794;9.784;2023-06-24T15:27:58;29.00;50.40
6256;DHT22;3161;48.794;9.784;2023-06-24T15:30:26;29.00;50.70
6256;DHT22;3161;48.794;9.784;2023-06-24T15:32:53;29.00;50.90
6256;DHT22;3161;48.794;9.784;2023-06-24T15:35:21;29.00;50.60
6256;DHT22;3161;48.794;9.784;2023-06-24T15:37:49;29.10;50.40
6256;DHT22;3161;48.794;9.784;2023-06-24T15:40:16;29.10;50.50
6256;DHT22;3161;48.794;9.784;2023-06-24T15:42:44;29.00;50.10
6256;DHT22;3161;48.794;9.784;2023-06-24T15:45:11;29.00;50.20
6256;DHT22;3161;48.794;9.784;2023-06-24T15:47:39;29.00;49.70
6256;DHT22;3161;48.794;9.784;2023-06-24T15:50:07;29.00;50.30
6256;DHT22;3161;48.794;9.784;2023-06-24T15:52:36;28.90;50.10
6256;DHT22;3161;48.794;9.784;2023-06-24T15:55:04;28.90;51.30
6256;DHT22;3161;48.794;9.784;2023-06-24T15:57:32;28.80;50.50
6256;DHT22;3161;48.794;9.784;2023-06-24T16:00:00;28.80;51.30
6256;DHT22;3161;48.794;9.784;2023-06-24T16:02:27;28.80;51.70
6256;DHT22;3161;48.794;9.784;2023-06-24T16:04:55;28.80;52.00
6256;DHT22;3161;48.794;9.784;2023-06-24T16:07:22;28.80;51.80
6256;DHT22;3161;48.794;9.784;2023-06-24T16:09:50;28.70;51.40
6256;DHT22;3161;48.794;9.784;2023-06-24T16:12:17;28.60;51.70
6256;DHT22;3161;48.794;9.784;2023-06-24T16:14:45;28.50;51.40
6256;DHT22;3161;48.794;9.784;2023-06-24T16:17:12;28.50;52.00
6256;DHT22;3161;48.794;9.784;2023-06-24T16:19:40;28.50;51.30
6256;DHT22;3161;48.794;9.784;2023-06-24T16:22:07;28.40;52.20
6256;DHT22;3161;48.794;9.784;2023-06-24T16:24:35;28.40;52.00